Arlington, Minnesota
Current Conditions -  °F | °C
As of 8:53 PM on Saturday 25 Oct 2014 (Local Time) from KGYL Reporting Station
Clear Clear  
Wind Chill: 47°   Ceiling: Unl
Heat Index: 48°   Visibility: 10mi
Dew Point: 29°   Wind: 5mph
Humidity: 48%   Direction: 270°W
Pressure: 30.06"   Gusts: NA
Location:  44.61°N, 94.08°W
Report Text: KGYL 260153Z AUTO 27004KT 10SM CLR 09/M01 A3006 RMK AO2 T00911015
Loading
Personal Weather Stations






























Interactive Weather Map New forecast layout! Learn more

10-Day Weather Forecast

Advertisements
Track Severe Weather on mobile